This is the latest recevied weather packets stored in our database for station/object K4KMJ. If no packets are shown the sender has not sent any weather packets the latest 10 day(s).
| Time | Temp. | Humidity | Pressure | Rain* | Wind** | Luminosity | Snow |
|---|---|---|---|---|---|---|---|
| 1778247430 | 27.78° C | 87% | 1017.9 hPa | 0 mm | - | 142 W/m² | - |
| 1778247128 | 28.33° C | 88% | 1017.6 hPa | 0 mm | - | 513 W/m² | - |
| 1778246825 | 27.78° C | 89% | 1017.5 hPa | 0 mm | - | 506 W/m² | - |
| 1778246522 | 26.67° C | 89% | 1017.4 hPa | 0 mm | - | 144 W/m² | - |
| 1778246218 | 27.22° C | 90% | 1017.7 hPa | 0 mm | - | 418 W/m² | - |
| 1778245914 | 27.22° C | 91% | 1017.5 hPa | 0 mm | - | 399 W/m² | - |
| 1778245611 | 27.22° C | 92% | 1017.4 hPa | 0 mm | - | 369 W/m² | - |
| 1778245308 | 26.67° C | 93% | 1017.5 hPa | 0 mm | - | 339 W/m² | - |
| 1778245004 | 26.11° C | 94% | 1017.5 hPa | 0 mm | - | 315 W/m² | - |
| 1778244701 | 26.11° C | 94% | 1017.5 hPa | 0 mm | - | 283 W/m² | - |
| 1778244399 | 26.11° C | 95% | 1017.5 hPa | 0 mm | - | 268 W/m² | - |
| 1778244096 | 26.11° C | 96% | 1017.2 hPa | 0 mm | - | 258 W/m² | - |
| 1778243794 | 26.11° C | 96% | 1017.2 hPa | 0 mm | - | 237 W/m² | - |
| 1778243492 | 25.56° C | 97% | 1017.2 hPa | 0 mm | - | 218 W/m² | - |
| 1778243187 | 25.56° C | 97% | 1017.3 hPa | 0 mm | - | 225 W/m² | - |
| 1778242884 | 25.56° C | 97% | 1017.1 hPa | 0 mm | - | 185 W/m² | - |
| 1778242583 | 26.11° C | 97% | 1017.2 hPa | 0 mm | - | 160 W/m² | - |
| 1778242280 | 25.56° C | 98% | 1017.1 hPa | 0 mm | - | 153 W/m² | - |
| 1778241977 | 25° C | 98% | 1017 hPa | 0 mm | - | 141 W/m² | - |
| 1778241676 | 24.44° C | 99% | 1016.9 hPa | 0 mm | - | 124 W/m² | - |
| 1778241373 | 24.44° C | 99% | 1016.9 hPa | 0 mm | - | 111 W/m² | - |
| 1778241069 | 23.89° C | 99% | 1017 hPa | 0 mm | - | 93 W/m² | - |
| 1778240767 | 23.89° C | 99% | 1016.8 hPa | 0 mm | - | 78 W/m² | - |
| 1778240463 | 23.33° C | 99% | 1016.9 hPa | 0 mm | - | 72 W/m² | - |
| 1778240160 | 23.33° C | 99% | 1017 hPa | 0 mm | - | 76 W/m² | - |
* Rain latest hour (hover to see other rain measurements)
** Current wind speed in m/s (hover to see current wind gust speed)